createdAt,value
2023-05-10T00:00:49.280Z,331.42138
2023-05-10T00:05:50.905Z,333.87342
2023-05-10T00:10:52.394Z,333.87342
2023-05-10T00:15:54.045Z,336.35669
2023-05-10T00:20:55.666Z,341.41935
2023-05-10T00:25:57.176Z,338.87179
2023-05-10T00:30:58.643Z,336.35669
2023-05-10T00:36:00.255Z,331.42138
2023-05-10T00:41:01.924Z,326.6087
2023-05-10T00:46:03.619Z,317.33333
2023-05-10T00:51:05.303Z,319.60976
2023-05-10T00:56:06.837Z,317.33333
2023-05-10T01:01:08.544Z,315.08434
2023-05-10T01:06:09.849Z,310.66667
2023-05-10T01:11:11.186Z,315.08434
2023-05-10T01:16:12.896Z,310.66667
2023-05-10T01:21:14.306Z,306.35294
2023-05-10T01:26:16.071Z,300.06936
2023-05-10T01:31:17.962Z,306.35294
2023-05-10T01:36:19.568Z,310.66667
2023-05-10T01:41:21.197Z,312.86228
2023-05-10T01:46:22.784Z,312.86228
2023-05-10T01:51:24.496Z,312.86228
2023-05-10T01:56:26.177Z,315.08434
2023-05-10T02:01:27.462Z,312.86228
2023-05-10T02:06:28.731Z,312.86228
2023-05-10T02:11:30.044Z,315.08434
2023-05-10T02:16:31.367Z,312.86228
2023-05-10T02:21:33.077Z,308.49704
2023-05-10T02:26:34.333Z,302.13953
2023-05-10T02:31:35.636Z,294
2023-05-10T02:36:36.884Z,302.13953
2023-05-10T02:41:38.279Z,304.23392
2023-05-10T02:46:39.637Z,308.49704
2023-05-10T02:51:41.043Z,310.66667
2023-05-10T02:56:42.527Z,315.08434
2023-05-10T03:01:43.841Z,317.33333
2023-05-10T03:06:45.345Z,312.86228
2023-05-10T03:11:47.058Z,310.66667
2023-05-10T03:16:48.353Z,302.13953
2023-05-10T03:21:50.074Z,306.35294
2023-05-10T03:26:51.717Z,306.35294
2023-05-10T03:31:53.131Z,312.86228
2023-05-10T03:36:54.791Z,319.60976
2023-05-10T03:41:56.421Z,331.42138
2023-05-10T03:46:58.090Z,344
2023-05-10T03:51:59.747Z,354.66667
2023-05-10T03:57:01.401Z,365.91781
2023-05-10T04:02:03.209Z,377.80282
2023-05-10T04:07:04.912Z,387.16547
2023-05-10T04:12:08.942Z,393.63504
2023-05-10T04:17:11.975Z,403.70149
2023-05-10T04:22:13.626Z,410.66667
2023-05-10T04:27:15.263Z,414.22901
2023-05-10T04:32:16.870Z,417.84615
2023-05-10T04:37:18.585Z,417.84615
2023-05-10T04:42:20.295Z,417.84615
2023-05-10T04:47:22.022Z,410.66667
2023-05-10T04:52:23.530Z,407.15789
2023-05-10T04:57:25.117Z,407.15789
2023-05-10T05:02:26.740Z,407.15789
2023-05-10T05:07:28.198Z,377.80282
2023-05-10T05:12:29.616Z,351.94702
2023-05-10T05:17:30.979Z,321.91411
2023-05-10T05:22:32.473Z,310.66667
2023-05-10T05:27:33.795Z,308.49704
2023-05-10T05:32:35.179Z,306.35294
2023-05-10T05:37:36.522Z,298.02299
2023-05-10T05:42:38.159Z,298.02299
2023-05-10T05:47:39.448Z,300.06936
2023-05-10T05:52:40.885Z,302.13953
2023-05-10T05:57:42.638Z,304.23392
2023-05-10T06:02:44.285Z,304.23392
2023-05-10T06:07:46.171Z,310.66667
2023-05-10T06:12:47.885Z,280.61202
2023-05-10T06:17:49.438Z,298.02299
2023-05-10T06:22:51.004Z,298.02299
2023-05-10T06:27:53.971Z,317.33333
2023-05-10T06:32:55.744Z,331.42138
2023-05-10T06:37:57.441Z,387.16547
2023-05-10T06:42:59.096Z,380.87943
2023-05-10T06:48:00.881Z,384
2023-05-10T06:53:02.578Z,410.66667
2023-05-10T06:58:04.305Z,396.94118
2023-05-10T07:03:05.967Z,380.87943
2023-05-10T07:08:07.703Z,380.87943
2023-05-10T07:13:09.488Z,387.16547
2023-05-10T07:18:11.303Z,421.51938
2023-05-10T07:23:12.989Z,436.8
2023-05-10T07:28:14.932Z,444.81301
2023-05-10T07:33:16.621Z,432.88889
2023-05-10T07:38:18.285Z,444.81301
2023-05-10T07:43:19.981Z,453.09091
2023-05-10T07:48:21.932Z,440.77419
2023-05-10T07:53:23.602Z,432.88889
2023-05-10T07:58:25.323Z,421.51938
2023-05-10T08:03:27.183Z,432.88889
2023-05-10T08:08:28.646Z,470.49573
2023-05-10T08:13:29.944Z,444.81301
2023-05-10T08:18:31.355Z,466.0339
2023-05-10T08:23:32.742Z,475.03448
2023-05-10T08:28:34.257Z,461.64706
2023-05-10T08:33:35.560Z,461.64706
2023-05-10T08:38:36.874Z,457.33333
2023-05-10T08:43:38.411Z,489.13274
2023-05-10T08:48:40.178Z,484.35088
2023-05-10T08:53:41.468Z,470.49573
2023-05-10T08:58:42.811Z,453.09091
2023-05-10T09:03:44.452Z,429.03937
2023-05-10T09:08:45.786Z,425.25
2023-05-10T09:13:47.395Z,436.8
2023-05-10T09:18:49.181Z,457.33333
2023-05-10T09:23:51.099Z,470.49573
2023-05-10T09:28:53.057Z,444.81301
2023-05-10T09:33:54.888Z,432.88889
2023-05-10T09:38:56.479Z,436.8
2023-05-10T09:43:57.905Z,448.91803
2023-05-10T09:48:59.220Z,461.64706
2023-05-10T09:54:00.547Z,479.65217
2023-05-10T09:59:02.481Z,489.13274
2023-05-10T10:04:04.208Z,489.13274
2023-05-10T10:09:05.837Z,498.95495
2023-05-10T10:14:07.485Z,530.66667
2023-05-10T10:19:09.068Z,530.66667
2023-05-10T10:24:10.860Z,553.90099
2023-05-10T10:29:12.819Z,628.44444
2023-05-10T10:34:14.634Z,636.13483
2023-05-10T10:39:16.427Z,592.42105
2023-05-10T10:44:18.047Z,599.31915
2023-05-10T10:49:19.819Z,585.66667
2023-05-10T10:54:21.414Z,592.42105
2023-05-10T10:59:23.016Z,592.42105
2023-05-10T11:04:24.688Z,606.36559
2023-05-10T11:09:26.581Z,579.05155
2023-05-10T11:14:28.464Z,592.42105
2023-05-10T11:19:29.912Z,0
2023-05-10T11:24:31.279Z,0
2023-05-10T11:29:32.598Z,566.22222
2023-05-10T11:34:33.938Z,572.57143
2023-05-10T11:39:38.624Z,579.05155
2023-05-10T11:44:40.058Z,553.90099
2023-05-10T11:49:41.353Z,592.42105
2023-05-10T11:54:42.629Z,0
2023-05-10T11:59:44.071Z,592.42105
2023-05-10T12:04:45.377Z,536.30769
2023-05-10T12:09:46.796Z,572.57143
2023-05-10T12:14:48.314Z,628.44444
2023-05-10T12:19:49.560Z,652.04598
2023-05-10T12:24:50.903Z,0
2023-05-10T12:29:52.221Z,0
2023-05-10T12:34:53.541Z,0
2023-05-10T12:39:54.893Z,0
2023-05-10T12:44:56.213Z,0
2023-05-10T12:49:57.465Z,613.56522
2023-05-10T12:54:58.947Z,592.42105
2023-05-10T13:00:00.281Z,572.57143
2023-05-10T13:05:01.767Z,585.66667
2023-05-10T13:10:03.192Z,0
2023-05-10T13:15:04.576Z,0
2023-05-10T13:20:05.895Z,0
2023-05-10T13:25:07.339Z,0
2023-05-10T13:30:08.753Z,0
2023-05-10T13:35:10.417Z,0
2023-05-10T13:40:12.035Z,0
2023-05-10T13:45:13.512Z,0
2023-05-10T13:50:14.765Z,0
2023-05-10T13:55:16.206Z,0
2023-05-10T14:00:18.355Z,0
2023-05-10T14:05:24.127Z,0
2023-05-10T14:10:27.390Z,0
2023-05-10T14:15:28.700Z,0
2023-05-10T14:20:30.052Z,0
2023-05-10T14:25:31.420Z,0
2023-05-10T14:30:32.831Z,0
2023-05-10T14:35:34.227Z,0
2023-05-10T14:40:35.802Z,0
2023-05-10T14:45:37.240Z,613.56522
2023-05-10T14:50:38.603Z,0
2023-05-10T14:55:40.051Z,0
2023-05-10T15:00:41.617Z,572.57143
2023-05-10T15:05:43.551Z,536.30769
2023-05-10T15:10:45.310Z,509.13761
2023-05-10T15:15:47.157Z,475.03448
2023-05-10T15:20:48.832Z,498.95495
2023-05-10T15:25:50.448Z,453.09091
2023-05-10T15:30:52.053Z,425.25
2023-05-10T15:35:53.730Z,410.66667
2023-05-10T15:40:55.840Z,414.22901
2023-05-10T15:45:57.806Z,414.22901
2023-05-10T15:50:59.411Z,417.84615
2023-05-10T15:56:00.991Z,403.70149
2023-05-10T16:01:02.779Z,384
2023-05-10T16:06:04.121Z,384
2023-05-10T16:11:05.458Z,400.2963
2023-05-10T16:16:06.840Z,410.66667
2023-05-10T16:21:08.460Z,407.15789
2023-05-10T16:26:10.227Z,403.70149
2023-05-10T16:31:11.757Z,403.70149
2023-05-10T16:36:13.297Z,403.70149
2023-05-10T16:41:14.781Z,396.94118
2023-05-10T16:46:16.440Z,396.94118
2023-05-10T16:51:18.087Z,396.94118
2023-05-10T16:56:19.366Z,384
2023-05-10T17:01:20.810Z,393.63504
2023-05-10T17:06:22.184Z,393.63504
2023-05-10T17:11:23.525Z,393.63504
2023-05-10T17:16:25.500Z,396.94118
2023-05-10T17:21:27.176Z,390.37681
2023-05-10T17:26:28.801Z,393.63504
2023-05-10T17:31:30.495Z,390.37681
2023-05-10T17:36:32.058Z,396.94118
2023-05-10T17:41:33.749Z,393.63504
2023-05-10T17:46:35.431Z,387.16547
2023-05-10T17:51:36.798Z,384
2023-05-10T17:56:38.286Z,384
2023-05-10T18:01:40.154Z,380.87943
2023-05-10T18:06:41.735Z,368.82759
2023-05-10T18:11:42.988Z,377.80282
2023-05-10T18:16:44.315Z,403.70149
2023-05-10T18:21:46.184Z,407.15789
2023-05-10T18:26:47.882Z,425.25
2023-05-10T18:31:49.697Z,414.22901
2023-05-10T18:36:51.514Z,407.15789
2023-05-10T18:41:53.430Z,410.66667
2023-05-10T18:46:55.288Z,410.66667
2023-05-10T18:51:57.236Z,425.25
2023-05-10T18:56:59.187Z,432.88889
2023-05-10T19:02:01.125Z,429.03937
2023-05-10T19:07:03.134Z,417.84615
2023-05-10T19:12:05.008Z,421.51938
2023-05-10T19:17:06.877Z,436.8
2023-05-10T19:22:08.528Z,432.88889
2023-05-10T19:27:10.315Z,436.8
2023-05-10T19:32:12.288Z,417.84615
2023-05-10T19:37:14.200Z,425.25
2023-05-10T19:42:15.991Z,414.22901
2023-05-10T19:47:17.893Z,417.84615
2023-05-10T19:52:19.500Z,407.15789
2023-05-10T19:57:21.449Z,407.15789
2023-05-10T20:02:23.070Z,410.66667
2023-05-10T20:07:24.774Z,417.84615
2023-05-10T20:12:26.665Z,410.66667
2023-05-10T20:17:28.277Z,407.15789
2023-05-10T20:22:29.915Z,396.94118
2023-05-10T20:27:31.617Z,396.94118
2023-05-10T20:32:33.078Z,393.63504
2023-05-10T20:37:34.619Z,390.37681
2023-05-10T20:42:36.237Z,390.37681
2023-05-10T20:47:37.658Z,390.37681
2023-05-10T20:52:39.300Z,393.63504
2023-05-10T20:57:40.587Z,400.2963
2023-05-10T21:02:41.931Z,400.2963
2023-05-10T21:07:43.472Z,396.94118
2023-05-10T21:12:44.766Z,403.70149
2023-05-10T21:17:46.369Z,396.94118
2023-05-10T21:22:47.653Z,403.70149
2023-05-10T21:27:49.044Z,396.94118
2023-05-10T21:32:50.911Z,396.94118
2023-05-10T21:37:52.479Z,407.15789
2023-05-10T21:42:53.855Z,410.66667
2023-05-10T21:47:55.527Z,400.2963
2023-05-10T21:52:57.209Z,414.22901
2023-05-10T21:57:58.757Z,417.84615
2023-05-10T22:03:00.364Z,417.84615
2023-05-10T22:08:02.210Z,414.22901
2023-05-10T22:13:03.943Z,421.51938
2023-05-10T22:18:05.719Z,453.09091
2023-05-10T22:23:07.420Z,453.09091
2023-05-10T22:28:09.025Z,440.77419
2023-05-10T22:33:10.818Z,466.0339
2023-05-10T22:38:12.442Z,470.49573
2023-05-10T22:43:14.053Z,461.64706
2023-05-10T22:48:15.743Z,436.8
2023-05-10T22:53:17.451Z,417.84615
2023-05-10T22:58:19.157Z,403.70149
2023-05-10T23:03:20.814Z,396.94118
2023-05-10T23:08:22.375Z,380.87943
2023-05-10T23:13:23.908Z,380.87943
2023-05-10T23:18:25.718Z,380.87943
2023-05-10T23:23:27.339Z,384
2023-05-10T23:28:28.941Z,384
2023-05-10T23:33:30.681Z,384
2023-05-10T23:38:32.262Z,377.80282
2023-05-10T23:43:33.609Z,380.87943
2023-05-10T23:48:34.962Z,380.87943
2023-05-10T23:53:36.285Z,377.80282
2023-05-10T23:58:37.576Z,374.76923
